Flight EZE30F

  • Submitted By: Dave Hardy
  • Departure Airport: Aberdeen / Dyce (EGPD)
  • Arrival Airport: Newcastle International (EGNT)
  • Aircraft: JS41 (G-MAJA)
  • Flight Time: 00.42
  • Date Submitted: 03/08/2009
  • Status: Accepted
Flight Details
Gross Revenue:
(15 load / £ 0.00 per unit
£ 0.00
Fuel Cost:
(908 fuel used @ 0 / unit)
£ 0.00

Flight Details

  • VATAWARE Link: -

Additional Log Information:

View Log

[2009/03/08 12:16:00]
Flight IATA:EZE30F
Pilot Number:EZE0001
Company ICAO:EZE
Aircraft Type:JS41
PAX:15
Aircraft Registration:JS41
Departing Airport: EGPD
Destination Airport: EGNT
Online: VATSIM
Route:ADN P18 ALASO
Flight Level:19000
12:16 Zero fuel Weight: 17980 Lbs, Fuel Weight: 5793 Lbs
12:16 VATSIM:EGPD 081250Z 22019KT 9999 FEW034 05/M02 Q0983 NOSIG
12:16 VATSIM:EGNT 081250Z 25019G30KT 210V270 8000 VCSH FEW020 05/M01 Q0992
12:19 Parking Brakes off
12:19 Com1 Freq=127.30
12:23 VR= 133 Knots
12:23 V2= 141 Knots
12:23 Take-off
12:23 Take off Weight: 23724 Lbs
12:23 Wind: 237 @ 017 Knots Heading: 162
12:23 POS N57 11 42 W002 11 32
12:23 N11 36 N12 36
12:23 Gear Up: 143 Knots
12:23 Flaps: at 143 Knots
12:25 Flaps: at 186 Knots
12:30 Com1 Freq=125.30
12:30 Com1 Freq=123.30
12:30 Com1 Freq=122.30
12:30 Com1 Freq=122.67
12:30 Com1 Freq=122.77
12:30 Com1 Freq=122.85
12:30 Com1 Freq=122.80
12:35 TOC
12:35 Fuel Weight: 5279 Lb
12:38 Wind:254@057 Knots Heading: 173 Ground Speed: 279 Knots Altitude 18293 ft
12:43 TOD
12:43 Fuel Weight: 5044 Lb
12:52 Flaps: at 192 Knots
12:53 Wind:266@019 Knots Heading: 190 Ground Speed: 135 Knots Altitude 1377 ft
12:54 Flaps: at 154 Knots
12:54 Gear Down: 153 Knots
12:57 Flaps: at 142 Knots
12:57 TouchDown:Rate -200 ft/min Speed: 116 Knots
12:58 VATSIM:EGNT 081320Z 24016G29KT 210V270 9999 FEW020 SCT038 05/M00 Q0991
12:58 Land
12:58 Wind:266@024 Knots
12:58 Heading: 246
12:58 Flight Duration: 00:35
12:58 Landing Weight: 22884 Lbs
12:58 POS N55 02 10 W001 41 47
13:01 Parking brakes on
13:01 Block to Block Duration: 00:42
13:01 Final Fuel: 4885 Lbls
13:01 Spent Fuel: 908 Lbls
13:01 Flight Length: 136 NM
13:01 TOD Land Length: 49 NM

Route Map